Terminal Aerodrome Forecast
Issued by NWS

Home | Current Version | Previous Version | Graphics & Text | Print | Product List | Glossary On
Versions: 1 2 3 4 5 6 7 8 9 10 11 12 13 14 15 16 17 18 19 20 21 22 23 24 25 26 27 28
751
FTUS43 KLOT 180735 AAA
TAFMDW
TAF AMD
KMDW 180735Z 1808/1906 36003KT 1SM -DZ BR OVC007
     FM180900 36003KT 1SM -DZ BR OVC004
     FM181200 35008KT 2SM -RADZ BR OVC004
     FM181500 36017G28KT 2SM RA BR BKN005 OVC015
     FM182100 34019G30KT 4SM -RA OVC025
     FM182300 33018G28KT P6SM BKN025=

USA.gov is the U.S. government's official web portal to all federal, state and local government web resources and services.